Airfield :
LOGIN :

Register | Disclaimer

   EN    FR    IT 

 










Legend :    VFR   Marginal VFR   IFR   Intensive IFR   Very Intensive IFR
Visi :
Ceiling :
>= 8 km
>= 3000ft
5 to 8 km
1000 to 3000 ft
1500m to 5 km
500 to 1000 ft
800 to 1500m
200 to 500 ft
< 800m
< 200 ft
Symbols :   Thunderstorms  Fog  Heavy snow  Heavy precipitations  Wind > 20 kt
SIGMETs :     Misc.  Thunderstorms  Icing  Turbulence  Mountain Waves  Volcanic Ashes







- Airport Elevation : 1043 ft
- IATA code : SLD


LZSL - Sliac

CURRENT METAR :
  • 210130Z 00000KT 9999 0800S BCFG FEW001 15/14 Q1019

EXPIRED METARs :
  • 210100Z 00000KT 9999 FEW002 16/15 Q1019
  • 210030Z 00000KT 9999 FEW003 17/15 Q1019
  • 210000Z VRB01KT 9999 FEW003 17/16 Q1019
  • 202330Z 08004KT CAVOK 18/17 Q1019
  • 202300Z 08004KT 040V100 9999 FEW005 SCT100 18/17 Q1019

TAF TAF LZSL
Valid from the 21 at 00:00 until the 21 at 09:00 UTC


202300Z 2100/2109 VRB02KT 9999 FEW030 SCT080
TEMPO 2100/2106 FEW004
PROB40
TEMPO 2101/2105 5000 MIFG SCT001
No reported NOTAMs for that airfield.



MET'MAP, your aeronautical weather chart ! - Copyright ORBIFLY December 2007 - Disclaimer

ORBIFLY MET'MAP TEAM :

Programming & Development : Alexandra Zaïnal
Concept & Development : Baudouin d'Aumeries
Co-Development & Prog : Marc-Olivier Méhu
Technical & hardware support : Manuel Goepfert

Contact : metmap@orbifly.com




SOURCES & CREDITS :

   NOAA